createdAt,value
2022-09-26T00:01:36.303Z,3.15
2022-09-26T00:04:09.195Z,3.33
2022-09-26T00:06:37.738Z,3.75
2022-09-26T00:09:05.971Z,3.38
2022-09-26T00:11:35.708Z,3.80
2022-09-26T00:14:06.376Z,3.97
2022-09-26T00:16:35.374Z,4.00
2022-09-26T00:19:04.937Z,4.13
2022-09-26T00:21:33.345Z,3.80
2022-09-26T00:24:02.744Z,3.63
2022-09-26T00:26:32.624Z,3.95
2022-09-26T00:29:04.415Z,3.72
2022-09-26T00:31:34.845Z,3.28
2022-09-26T00:34:04.834Z,3.90
2022-09-26T00:36:37.895Z,3.88
2022-09-26T00:39:07.517Z,3.20
2022-09-26T00:41:36.148Z,3.33
2022-09-26T00:44:04.953Z,3.80
2022-09-26T00:46:38.026Z,2.92
2022-09-26T00:49:23.174Z,3.13
2022-09-26T00:51:54.761Z,3.35
2022-09-26T00:54:23.786Z,3.67
2022-09-26T00:56:56.863Z,3.50
2022-09-26T00:59:28.408Z,3.40
2022-09-26T01:01:59.915Z,3.15
2022-09-26T01:04:31.632Z,3.60
2022-09-26T01:07:02.936Z,3.38
2022-09-26T01:09:32.298Z,3.22
2022-09-26T01:12:01.614Z,3.50
2022-09-26T01:14:30.240Z,3.50
2022-09-26T01:16:58.484Z,3.28
2022-09-26T01:19:50.636Z,3.17
2022-09-26T01:22:43.064Z,3.00
2022-09-26T01:25:22.856Z,3.10
2022-09-26T01:28:05.552Z,2.75
2022-09-26T01:30:42.910Z,2.40
2022-09-26T01:33:46.478Z,3.65
2022-09-26T01:36:54.654Z,2.78
2022-09-26T01:39:37.247Z,2.88
2022-09-26T01:42:16.499Z,3.00
2022-09-26T01:44:51.083Z,2.60
2022-09-26T01:47:27.722Z,2.10
2022-09-26T01:50:01.803Z,2.30
2022-09-26T01:52:37.028Z,2.58
2022-09-26T01:55:11.105Z,2.22
2022-09-26T01:57:42.783Z,2.67
2022-09-26T02:00:12.842Z,2.00
2022-09-26T02:02:44.875Z,2.13
2022-09-26T02:05:19.521Z,2.83
2022-09-26T02:07:54.768Z,2.20
2022-09-26T02:10:28.755Z,1.90
2022-09-26T02:13:05.210Z,2.58
2022-09-26T02:15:35.755Z,1.95
2022-09-26T02:18:13.689Z,1.65
2022-09-26T02:20:47.809Z,2.13
2022-09-26T02:23:16.172Z,2.08
2022-09-26T02:25:44.433Z,2.20
2022-09-26T02:28:12.673Z,1.98
2022-09-26T02:30:41.996Z,2.00
2022-09-26T02:33:11.671Z,2.22
2022-09-26T02:35:57.750Z,2.47
2022-09-26T02:38:27.576Z,2.17
2022-09-26T02:41:02.129Z,2.00
2022-09-26T02:43:57.847Z,2.50
2022-09-26T02:46:40.759Z,2.22
2022-09-26T02:49:23.029Z,2.20
2022-09-26T02:52:08.922Z,2.15
2022-09-26T02:54:46.490Z,2.13
2022-09-26T02:57:29.298Z,2.20
2022-09-26T03:00:02.709Z,2.38
2022-09-26T03:02:35.434Z,2.10
2022-09-26T03:05:10.152Z,2.63
2022-09-26T03:07:44.368Z,2.63
2022-09-26T03:10:14.401Z,2.10
2022-09-26T03:12:44.824Z,1.80
2022-09-26T03:15:14.595Z,1.90
2022-09-26T03:17:47.535Z,1.85
2022-09-26T03:20:19.232Z,2.10
2022-09-26T03:22:47.362Z,2.10
2022-09-26T03:25:18.533Z,1.85
2022-09-26T03:27:47.849Z,2.17
2022-09-26T03:30:17.799Z,1.92
2022-09-26T03:32:45.801Z,2.05
2022-09-26T03:35:14.044Z,2.10
2022-09-26T03:37:43.611Z,2.15
2022-09-26T03:40:13.922Z,2.22
2022-09-26T03:42:42.583Z,2.13
2022-09-26T03:45:12.008Z,2.10
2022-09-26T03:47:41.942Z,2.05
2022-09-26T03:50:11.000Z,1.90
2022-09-26T03:52:39.004Z,2.17
2022-09-26T03:55:09.248Z,2.10
2022-09-26T03:57:37.245Z,2.55
2022-09-26T04:00:08.028Z,1.58
2022-09-26T04:02:36.516Z,2.00
2022-09-26T04:05:04.999Z,2.25
2022-09-26T04:07:33.021Z,1.60
2022-09-26T04:10:01.055Z,2.08
2022-09-26T04:12:30.425Z,2.13
2022-09-26T04:14:58.435Z,2.08
2022-09-26T04:17:26.520Z,2.05
2022-09-26T04:19:54.578Z,1.55
2022-09-26T04:22:22.553Z,1.88
2022-09-26T04:24:51.603Z,1.98
2022-09-26T04:27:19.621Z,1.95
2022-09-26T04:29:49.031Z,1.95
2022-09-26T04:32:17.426Z,1.88
2022-09-26T04:34:45.537Z,2.30
2022-09-26T04:37:13.527Z,2.53
2022-09-26T04:39:42.032Z,1.83
2022-09-26T04:42:10.056Z,1.77
2022-09-26T04:44:38.120Z,1.70
2022-09-26T04:47:08.319Z,1.60
2022-09-26T04:49:36.342Z,1.60
2022-09-26T04:52:04.510Z,1.73
2022-09-26T04:54:32.516Z,1.60
2022-09-26T04:57:01.468Z,1.90
2022-09-26T04:59:29.456Z,1.30
2022-09-26T05:01:57.549Z,1.27
2022-09-26T05:04:27.914Z,1.30
2022-09-26T05:06:57.927Z,1.48
2022-09-26T05:09:26.292Z,1.30
2022-09-26T05:11:54.346Z,1.88
2022-09-26T05:14:22.477Z,1.42
2022-09-26T05:16:50.577Z,1.52
2022-09-26T05:19:18.899Z,1.58
2022-09-26T05:21:48.279Z,1.23
2022-09-26T05:24:33.615Z,1.40
2022-09-26T05:27:02.536Z,1.40
2022-09-26T05:29:30.567Z,1.40
2022-09-26T05:31:59.412Z,1.40
2022-09-26T05:34:27.532Z,1.92
2022-09-26T05:36:57.117Z,1.45
2022-09-26T05:39:42.845Z,1.30
2022-09-26T05:42:10.965Z,1.20
2022-09-26T05:44:39.861Z,1.10
2022-09-26T05:47:08.572Z,1.83
2022-09-26T05:49:36.691Z,1.42
2022-09-26T05:52:06.301Z,1.08
2022-09-26T05:54:34.371Z,1.58
2022-09-26T05:57:02.410Z,1.50
2022-09-26T05:59:30.422Z,1.50
2022-09-26T06:01:58.682Z,1.67
2022-09-26T06:04:26.742Z,1.35
2022-09-26T06:06:54.719Z,1.20
2022-09-26T06:09:24.152Z,1.10
2022-09-26T06:11:52.134Z,1.52
2022-09-26T06:14:21.061Z,1.50
2022-09-26T06:16:49.104Z,1.17
2022-09-26T06:19:22.065Z,1.70
2022-09-26T06:21:50.915Z,1.40
2022-09-26T06:24:20.313Z,1.65
2022-09-26T06:26:49.655Z,1.50
2022-09-26T06:29:17.714Z,1.38
2022-09-26T06:31:46.326Z,1.33
2022-09-26T06:34:15.621Z,1.60
2022-09-26T06:36:44.129Z,1.30
2022-09-26T06:39:12.184Z,1.48
2022-09-26T06:41:40.157Z,1.38
2022-09-26T06:44:09.588Z,1.58
2022-09-26T06:46:37.707Z,1.48
2022-09-26T06:49:06.737Z,1.30
2022-09-26T06:51:34.756Z,1.33
2022-09-26T06:54:03.426Z,1.30
2022-09-26T06:56:31.465Z,1.50
2022-09-26T06:58:59.588Z,1.77
2022-09-26T07:01:29.069Z,1.15
2022-09-26T07:03:57.262Z,1.80
2022-09-26T07:06:25.260Z,1.42
2022-09-26T07:09:12.163Z,1.35
2022-09-26T07:12:13.010Z,1.20
2022-09-26T07:14:33.800Z,1.30
2022-09-26T07:17:03.180Z,1.40
2022-09-26T07:19:31.258Z,1.58
2022-09-26T07:21:59.347Z,1.48
2022-09-26T07:24:28.065Z,2.03
2022-09-26T07:26:56.159Z,1.45
2022-09-26T07:29:24.296Z,1.52
2022-09-26T07:31:52.455Z,1.50
2022-09-26T07:34:25.005Z,1.20
2022-09-26T07:36:54.076Z,1.38
2022-09-26T07:39:22.281Z,1.42
2022-09-26T07:41:50.291Z,1.30
2022-09-26T07:45:02.253Z,1.77
2022-09-26T07:47:23.991Z,1.25
2022-09-26T07:50:11.006Z,1.30
2022-09-26T07:52:39.145Z,1.45
2022-09-26T07:55:07.774Z,1.33
2022-09-26T07:57:36.269Z,1.67
2022-09-26T08:00:07.959Z,1.38
2022-09-26T08:02:36.449Z,1.20
2022-09-26T08:05:07.780Z,1.23
2022-09-26T08:07:36.792Z,1.30
2022-09-26T08:10:06.972Z,1.27
2022-09-26T08:12:39.240Z,1.10
2022-09-26T08:15:08.927Z,1.50
2022-09-26T08:17:38.178Z,1.48
2022-09-26T08:20:08.511Z,1.58
2022-09-26T08:22:36.585Z,1.75
2022-09-26T08:25:06.862Z,1.30
2022-09-26T08:27:35.571Z,1.65
2022-09-26T08:30:04.403Z,1.05
2022-09-26T08:32:33.692Z,1.42
2022-09-26T08:35:01.732Z,1.42
2022-09-26T08:37:31.110Z,1.33
2022-09-26T08:40:00.676Z,1.40
2022-09-26T08:42:42.149Z,1.40
2022-09-26T08:45:48.052Z,1.27
2022-09-26T08:48:29.174Z,1.42
2022-09-26T08:51:07.064Z,1.20
2022-09-26T08:53:43.387Z,1.67
2022-09-26T08:56:20.766Z,1.20
2022-09-26T08:58:52.921Z,1.67
2022-09-26T09:01:26.954Z,1.90
2022-09-26T09:04:02.231Z,1.63
2022-09-26T09:06:30.547Z,1.63
2022-09-26T09:09:00.185Z,1.58
2022-09-26T09:11:57.701Z,1.27
2022-09-26T09:14:54.231Z,1.55
2022-09-26T09:17:40.277Z,1.90
2022-09-26T09:20:19.625Z,1.63
2022-09-26T09:23:31.663Z,1.90
2022-09-26T09:29:24.577Z,1.60
2022-09-26T09:31:53.345Z,1.70
2022-09-26T09:34:27.638Z,1.88
2022-09-26T09:36:58.805Z,1.77
2022-09-26T09:39:32.369Z,1.50
2022-09-26T09:42:07.809Z,2.08
2022-09-26T09:44:46.455Z,1.83
2022-09-26T09:47:17.088Z,1.80
2022-09-26T09:49:47.744Z,1.75
2022-09-26T09:52:29.829Z,1.73
2022-09-26T09:55:07.196Z,1.40
2022-09-26T09:58:11.199Z,1.98
2022-09-26T10:00:44.838Z,2.03
2022-09-26T10:03:24.282Z,1.65
2022-09-26T10:05:59.712Z,1.80
2022-09-26T10:08:31.330Z,1.58
2022-09-26T10:11:14.228Z,1.45
2022-09-26T10:13:45.722Z,1.40
2022-09-26T10:16:15.679Z,1.90
2022-09-26T10:19:03.517Z,1.77
2022-09-26T10:21:34.237Z,1.75
2022-09-26T10:24:04.910Z,1.77
2022-09-26T10:26:35.905Z,1.52
2022-09-26T10:29:08.855Z,1.65
2022-09-26T10:31:42.897Z,1.65
2022-09-26T10:34:25.145Z,1.60
2022-09-26T10:36:53.792Z,1.52
2022-09-26T10:39:41.372Z,1.48
2022-09-26T10:42:16.243Z,2.22
2022-09-26T10:44:46.534Z,1.98
2022-09-26T10:47:17.292Z,1.70
2022-09-26T10:49:51.336Z,1.80
2022-09-26T10:52:23.857Z,1.67
2022-09-26T10:54:58.146Z,1.90
2022-09-26T10:57:30.755Z,1.80
2022-09-26T11:00:08.298Z,1.75
2022-09-26T11:02:37.687Z,1.52
2022-09-26T11:05:24.098Z,1.38
2022-09-26T11:07:53.779Z,1.90
2022-09-26T11:10:28.505Z,1.65
2022-09-26T11:12:59.794Z,1.63
2022-09-26T11:15:29.798Z,1.35
2022-09-26T11:17:58.621Z,1.75
2022-09-26T11:20:51.766Z,1.75
2022-09-26T11:23:32.418Z,1.70
2022-09-26T11:26:11.730Z,1.45
2022-09-26T11:28:44.941Z,1.83
2022-09-26T11:31:23.649Z,1.50
2022-09-26T11:33:52.081Z,1.42
2022-09-26T11:36:46.905Z,1.65
2022-09-26T11:39:33.493Z,1.40
2022-09-26T11:42:14.977Z,1.30
2022-09-26T11:44:55.287Z,1.30
2022-09-26T11:48:05.836Z,1.42
2022-09-26T11:50:41.115Z,1.10
2022-09-26T11:53:29.777Z,1.45
2022-09-26T11:56:23.340Z,1.20
2022-09-26T11:58:55.412Z,1.00
2022-09-26T12:01:38.167Z,1.20
2022-09-26T12:04:51.343Z,1.38
2022-09-26T12:07:23.777Z,1.10
2022-09-26T12:10:07.405Z,1.10
2022-09-26T12:12:43.118Z,0.85
2022-09-26T12:15:23.793Z,0.90
2022-09-26T12:18:13.143Z,1.05
2022-09-26T12:20:50.836Z,1.00
2022-09-26T12:23:29.788Z,0.95
2022-09-26T12:26:10.938Z,0.63
2022-09-26T12:29:03.527Z,0.90
2022-09-26T12:31:48.260Z,0.90
2022-09-26T12:34:33.739Z,0.77
2022-09-26T12:37:14.525Z,0.80
2022-09-26T12:40:04.871Z,0.80
2022-09-26T12:42:45.596Z,0.73
2022-09-26T12:45:42.202Z,0.63
2022-09-26T12:48:29.727Z,0.75
2022-09-26T12:51:10.367Z,1.08
2022-09-26T12:54:11.066Z,0.60
2022-09-26T12:56:49.519Z,0.68
2022-09-26T12:59:35.288Z,1.13
2022-09-26T13:02:21.803Z,0.82
2022-09-26T13:05:09.963Z,0.88
2022-09-26T13:07:51.412Z,0.80
2022-09-26T13:10:33.379Z,0.68
2022-09-26T13:13:24.779Z,1.00
2022-09-26T13:16:13.343Z,1.08
2022-09-26T13:18:48.156Z,1.00
2022-09-26T13:21:21.192Z,1.02
2022-09-26T13:23:55.578Z,0.68
2022-09-26T13:26:28.932Z,0.80
2022-09-26T13:29:25.804Z,1.00
2022-09-26T13:31:58.791Z,1.17
2022-09-26T13:34:32.462Z,1.10
2022-09-26T13:37:01.381Z,0.60
2022-09-26T13:39:35.087Z,0.88
2022-09-26T13:42:08.607Z,1.02
2022-09-26T13:44:53.229Z,0.85
2022-09-26T13:47:29.817Z,0.88
2022-09-26T13:50:05.161Z,0.80
2022-09-26T13:52:44.427Z,0.90
2022-09-26T13:55:19.166Z,1.10
2022-09-26T13:57:51.363Z,1.10
2022-09-26T14:00:49.068Z,0.90
2022-09-26T14:03:40.627Z,0.63
2022-09-26T14:06:27.013Z,0.70
2022-09-26T14:09:24.632Z,0.73
2022-09-26T14:12:16.295Z,0.60
2022-09-26T14:14:46.559Z,0.63
2022-09-26T14:18:02.379Z,0.80
2022-09-26T14:20:38.407Z,0.60
2022-09-26T14:23:06.438Z,0.85
2022-09-26T14:25:56.603Z,0.68
2022-09-26T14:28:33.867Z,0.57
2022-09-26T14:31:23.093Z,0.57
2022-09-26T14:34:05.517Z,0.60
2022-09-26T14:36:36.526Z,0.80
2022-09-26T14:39:05.922Z,0.70
2022-09-26T14:41:37.025Z,0.63
2022-09-26T14:44:07.403Z,0.77
2022-09-26T14:46:36.899Z,0.60
2022-09-26T14:49:08.045Z,0.70
2022-09-26T14:51:40.604Z,0.70
2022-09-26T14:54:22.430Z,0.70
2022-09-26T14:56:59.601Z,0.65
2022-09-26T14:59:41.003Z,0.70
2022-09-26T15:02:24.348Z,0.80
2022-09-26T15:05:01.269Z,0.80
2022-09-26T15:07:35.126Z,1.00
2022-09-26T15:10:09.246Z,1.00
2022-09-26T15:12:44.253Z,0.90
2022-09-26T15:15:30.683Z,1.20
2022-09-26T15:18:08.198Z,0.90
2022-09-26T15:20:41.759Z,0.90
2022-09-26T15:23:21.046Z,1.13
2022-09-26T15:25:49.100Z,0.98
2022-09-26T15:28:17.141Z,0.90
2022-09-26T15:30:45.466Z,1.02
2022-09-26T15:33:18.502Z,1.17
2022-09-26T15:35:56.102Z,1.27
2022-09-26T15:38:26.251Z,1.27
2022-09-26T15:41:02.120Z,1.20
2022-09-26T15:43:34.847Z,1.20
2022-09-26T15:46:08.871Z,1.30
2022-09-26T15:48:44.404Z,1.38
2022-09-26T15:51:19.603Z,1.13
2022-09-26T15:53:53.511Z,1.45
2022-09-26T15:56:25.356Z,1.38
2022-09-26T15:58:56.465Z,1.35
2022-09-26T16:01:28.977Z,1.90
2022-09-26T16:03:59.428Z,1.70
2022-09-26T16:06:30.554Z,1.50
2022-09-26T16:09:08.953Z,1.42
2022-09-26T16:11:46.269Z,1.50
2022-09-26T16:14:31.812Z,1.50
2022-09-26T16:17:04.361Z,1.73
2022-09-26T16:19:35.779Z,2.00
2022-09-26T16:22:36.660Z,1.73
2022-09-26T16:25:53.429Z,1.90
2022-09-26T16:28:44.550Z,2.20
2022-09-26T16:31:39.303Z,2.05
2022-09-26T16:34:21.110Z,2.20
2022-09-26T16:36:49.741Z,2.42
2022-09-26T16:39:22.120Z,2.30
2022-09-26T16:42:02.331Z,2.42
2022-09-26T16:44:36.247Z,2.45
2022-09-26T16:47:07.308Z,2.75
2022-09-26T16:49:46.138Z,3.10
2022-09-26T16:52:31.434Z,2.92
2022-09-26T16:55:01.198Z,3.38
2022-09-26T16:57:33.231Z,2.47
2022-09-26T17:00:26.050Z,2.28
2022-09-26T17:02:54.327Z,2.60
2022-09-26T17:05:23.376Z,1.83
2022-09-26T17:07:51.708Z,1.90
2022-09-26T17:10:21.884Z,2.20
2022-09-26T17:12:52.956Z,2.08
2022-09-26T17:15:27.892Z,2.00
2022-09-26T17:17:56.951Z,2.05
2022-09-26T17:20:26.831Z,2.65
2022-09-26T17:22:55.454Z,2.53
2022-09-26T17:25:24.975Z,2.33
2022-09-26T17:27:57.719Z,2.35
2022-09-26T17:30:27.392Z,2.65
2022-09-26T17:32:55.668Z,3.38
2022-09-26T17:35:26.613Z,2.80
2022-09-26T17:37:55.114Z,3.08
2022-09-26T17:40:26.342Z,3.38
2022-09-26T17:42:56.501Z,3.75
2022-09-26T17:45:30.387Z,3.55
2022-09-26T17:48:00.581Z,3.30
2022-09-26T17:50:31.441Z,3.75
2022-09-26T17:53:02.159Z,3.55
2022-09-26T17:55:31.137Z,3.67
2022-09-26T17:57:59.720Z,3.22
2022-09-26T18:00:34.423Z,3.20
2022-09-26T18:03:04.216Z,3.90
2022-09-26T18:05:35.593Z,3.28
2022-09-26T18:08:10.419Z,3.25
2022-09-26T18:10:43.180Z,2.13
2022-09-26T18:13:15.339Z,2.80
2022-09-26T18:15:44.783Z,2.33
2022-09-26T18:18:14.298Z,2.35
2022-09-26T18:20:42.556Z,2.55
2022-09-26T18:23:17.067Z,2.38
2022-09-26T18:25:47.498Z,2.75
2022-09-26T18:28:19.961Z,2.03
2022-09-26T18:30:55.560Z,2.30
2022-09-26T18:33:27.849Z,2.05
2022-09-26T18:35:56.145Z,2.10
2022-09-26T18:38:24.180Z,1.40
2022-09-26T18:40:55.217Z,1.73
2022-09-26T18:43:25.748Z,1.73
2022-09-26T18:45:57.299Z,2.13
2022-09-26T18:48:31.729Z,1.85
2022-09-26T18:51:00.338Z,1.52
2022-09-26T18:53:34.830Z,1.70
2022-09-26T18:56:32.036Z,1.55
2022-09-26T18:59:00.128Z,1.50
2022-09-26T19:01:33.099Z,1.90
2022-09-26T19:04:03.587Z,1.92
2022-09-26T19:06:35.714Z,1.38
2022-09-26T19:09:06.390Z,1.77
2022-09-26T19:11:36.199Z,2.05
2022-09-26T19:14:16.490Z,1.92
2022-09-26T19:16:47.635Z,1.70
2022-09-26T19:19:16.597Z,1.90
2022-09-26T19:21:47.805Z,2.03
2022-09-26T19:24:21.189Z,2.50
2022-09-26T19:26:52.577Z,2.67
2022-09-26T19:29:31.397Z,2.72
2022-09-26T19:32:02.197Z,2.40
2022-09-26T19:34:32.906Z,2.78
2022-09-26T19:37:03.137Z,2.42
2022-09-26T19:39:31.757Z,2.20
2022-09-26T19:41:59.822Z,2.25
2022-09-26T19:44:28.059Z,1.58
2022-09-26T19:46:56.358Z,2.22
2022-09-26T19:49:27.973Z,1.75
2022-09-26T19:51:56.047Z,2.10
2022-09-26T19:54:24.283Z,2.17
2022-09-26T19:56:52.292Z,1.83
2022-09-26T19:59:24.018Z,2.45
2022-09-26T20:01:54.878Z,2.53
2022-09-26T20:04:23.355Z,1.90
2022-09-26T20:06:52.836Z,1.70
2022-09-26T20:09:21.347Z,1.50
2022-09-26T20:11:49.610Z,1.60
2022-09-26T20:14:26.934Z,1.70
2022-09-26T20:16:57.880Z,1.63
2022-09-26T20:19:34.261Z,1.95
2022-09-26T20:22:05.990Z,1.00
2022-09-26T20:24:36.446Z,2.08
2022-09-26T20:27:08.117Z,1.30
2022-09-26T20:29:50.385Z,1.30
2022-09-26T20:32:19.237Z,1.35
2022-09-26T20:34:48.162Z,1.55
2022-09-26T20:37:19.842Z,0.98
2022-09-26T20:39:48.227Z,1.30
2022-09-26T20:42:19.889Z,1.42
2022-09-26T20:44:49.644Z,0.90
2022-09-26T20:47:21.117Z,1.05
2022-09-26T20:49:53.825Z,0.77
2022-09-26T20:52:25.373Z,0.90
2022-09-26T20:54:53.905Z,1.15
2022-09-26T20:57:22.243Z,0.95
2022-09-26T20:59:51.038Z,1.00
2022-09-26T21:02:28.703Z,1.05
2022-09-26T21:04:58.019Z,1.25
2022-09-26T21:07:27.518Z,1.00
2022-09-26T21:09:55.592Z,1.00
2022-09-26T21:12:23.595Z,1.05
2022-09-26T21:14:51.820Z,1.10
2022-09-26T21:17:22.120Z,0.85
2022-09-26T21:19:51.397Z,1.23
2022-09-26T21:22:24.717Z,1.17
2022-09-26T21:24:55.323Z,1.38
2022-09-26T21:27:24.317Z,1.00
2022-09-26T21:29:52.465Z,1.13
2022-09-26T21:32:23.233Z,1.00
2022-09-26T21:34:57.834Z,1.10
2022-09-26T21:37:25.802Z,1.08
2022-09-26T21:39:55.279Z,1.38
2022-09-26T21:42:23.406Z,1.30
2022-09-26T21:44:56.933Z,1.40
2022-09-26T21:47:25.054Z,1.30
2022-09-26T21:49:53.479Z,1.38
2022-09-26T21:52:28.149Z,1.30
2022-09-26T21:55:00.305Z,1.48
2022-09-26T21:57:30.641Z,1.42
2022-09-26T21:59:59.847Z,1.23
2022-09-26T22:02:28.026Z,1.55
2022-09-26T22:04:56.114Z,1.83
2022-09-26T22:07:24.187Z,2.00
2022-09-26T22:09:52.576Z,1.65
2022-09-26T22:12:22.231Z,2.05
2022-09-26T22:14:50.321Z,1.77
2022-09-26T22:17:18.513Z,1.30
2022-09-26T22:19:46.915Z,1.23
2022-09-26T22:22:17.224Z,1.38
2022-09-26T22:24:45.510Z,1.40
2022-09-26T22:27:13.591Z,1.48
2022-09-26T22:29:43.039Z,1.35
2022-09-26T22:32:11.028Z,1.20
2022-09-26T22:34:39.063Z,1.35
2022-09-26T22:37:07.080Z,1.10
2022-09-26T22:39:35.239Z,1.20
2022-09-26T22:42:03.280Z,1.10
2022-09-26T22:44:31.326Z,0.90
2022-09-26T22:47:00.994Z,1.02
2022-09-26T22:49:29.236Z,1.10
2022-09-26T22:51:57.337Z,0.73
2022-09-26T22:54:25.479Z,1.05
2022-09-26T22:56:53.613Z,1.08
2022-09-26T22:59:21.789Z,0.90
2022-09-26T23:01:51.724Z,1.02
2022-09-26T23:04:21.249Z,0.80
2022-09-26T23:06:49.327Z,0.85
2022-09-26T23:09:17.453Z,1.15
2022-09-26T23:11:47.061Z,1.02
2022-09-26T23:14:15.106Z,1.05
2022-09-26T23:16:43.175Z,0.85
2022-09-26T23:19:11.247Z,0.90
2022-09-26T23:21:40.566Z,1.10
2022-09-26T23:24:08.743Z,0.93
2022-09-26T23:26:36.788Z,1.10
2022-09-26T23:29:05.308Z,0.90
2022-09-26T23:31:33.337Z,0.98
2022-09-26T23:34:01.378Z,1.02
2022-09-26T23:36:29.411Z,1.23
2022-09-26T23:38:59.651Z,0.70
2022-09-26T23:41:27.702Z,1.00
2022-09-26T23:43:55.759Z,0.90
2022-09-26T23:46:23.836Z,1.00
2022-09-26T23:48:52.228Z,0.95
2022-09-26T23:51:20.301Z,1.20
2022-09-26T23:53:48.535Z,1.23
2022-09-26T23:56:17.963Z,1.10
2022-09-26T23:58:47.039Z,0.80
